createdAt,value
2023-02-26T00:00:32.958Z,0.34
2023-02-26T00:01:33.017Z,0.40
2023-02-26T00:02:32.986Z,0.56
2023-02-26T00:03:32.941Z,0.71
2023-02-26T00:04:32.952Z,0.79
2023-02-26T00:05:32.942Z,0.86
2023-02-26T00:06:32.997Z,0.90
2023-02-26T00:07:33.088Z,0.80
2023-02-26T00:08:33.229Z,0.70
2023-02-26T00:09:33.368Z,0.69
2023-02-26T00:10:33.238Z,0.78
2023-02-26T00:11:33.262Z,0.80
2023-02-26T00:12:33.344Z,1.04
2023-02-26T00:13:33.297Z,1.51
2023-02-26T00:14:33.224Z,1.60
2023-02-26T00:15:34.363Z,1.96
2023-02-26T00:16:33.241Z,2.64
2023-02-26T00:17:33.440Z,3.20
2023-02-26T00:18:33.413Z,3.84
2023-02-26T00:21:33.372Z,4.96
2023-02-26T00:22:33.457Z,6.61
2023-02-26T00:23:33.517Z,8.34
2023-02-26T00:24:33.749Z,9.51
2023-02-26T00:25:33.964Z,10.75
2023-02-26T00:26:33.660Z,7.21
2023-02-26T00:27:33.545Z,7.71
2023-02-26T00:28:33.571Z,9.21
2023-02-26T00:29:33.486Z,10.50
2023-02-26T00:30:33.764Z,11.40
2023-02-26T00:31:34.738Z,10.17
2023-02-26T00:32:33.972Z,9.28
2023-02-26T00:33:33.719Z,8.52
2023-02-26T00:34:33.822Z,6.28
2023-02-26T00:35:33.758Z,7.50
2023-02-26T00:36:35.043Z,9.58
2023-02-26T00:37:33.854Z,10.85
2023-02-26T00:38:33.962Z,11.30
2023-02-26T00:39:33.906Z,14.31
2023-02-26T00:40:33.858Z,13.87
2023-02-26T00:41:34.163Z,10.41
2023-02-26T00:42:34.388Z,8.01
2023-02-26T00:43:33.985Z,8.17
2023-02-26T00:44:34.281Z,6.46
2023-02-26T00:45:34.181Z,4.96
2023-02-26T00:46:33.906Z,5.00
2023-02-26T00:47:34.090Z,4.96
2023-02-26T00:48:34.034Z,5.62
2023-02-26T00:49:34.053Z,5.28
2023-02-26T00:50:34.032Z,7.00
2023-02-26T00:51:35.075Z,8.08
2023-02-26T00:52:34.262Z,10.44
2023-02-26T00:53:34.243Z,19.31
2023-02-26T00:54:34.264Z,15.51
2023-02-26T01:11:50.966Z,3.74
2023-02-26T02:27:36.096Z,0.50
2023-02-26T02:28:35.933Z,0.50
2023-02-26T02:29:36.012Z,0.50
2023-02-26T02:30:36.006Z,0.50
2023-02-26T02:34:54.849Z,0.50
2023-02-26T02:35:54.813Z,0.50
2023-02-26T02:36:54.846Z,0.50
2023-02-26T02:37:54.858Z,0.51
2023-02-26T02:38:54.798Z,0.45
2023-02-26T02:39:54.880Z,0.43
2023-02-26T02:40:54.852Z,0.51
2023-02-26T02:41:54.920Z,0.49
2023-02-26T02:42:54.832Z,0.60
2023-02-26T02:43:54.896Z,0.58
2023-02-26T02:44:54.838Z,0.60
2023-02-26T02:45:54.791Z,0.55
2023-02-26T02:46:54.842Z,0.57
2023-02-26T02:47:54.760Z,0.59
2023-02-26T02:48:54.739Z,0.64
2023-02-26T02:49:54.772Z,0.65
2023-02-26T02:50:54.751Z,0.67
2023-02-26T02:51:54.759Z,0.67
2023-02-26T02:52:54.786Z,0.80
2023-02-26T02:53:54.777Z,0.89
2023-02-26T02:54:54.804Z,0.79
2023-02-26T02:55:54.882Z,0.80
2023-02-26T02:56:54.918Z,0.95
2023-02-26T02:57:54.903Z,0.93
2023-02-26T02:58:54.932Z,1.01
2023-02-26T02:59:55.025Z,1.02
2023-02-26T03:00:55.090Z,0.77
2023-02-26T03:01:55.070Z,0.60
2023-02-26T03:02:55.209Z,0.52
2023-02-26T03:03:55.228Z,0.57
2023-02-26T03:04:55.266Z,0.60
2023-02-26T03:05:55.297Z,0.54
2023-02-26T03:06:55.399Z,0.66
2023-02-26T03:07:55.377Z,0.80
2023-02-26T03:08:55.436Z,0.76
2023-02-26T03:09:55.504Z,0.69
2023-02-26T03:10:55.510Z,0.88
2023-02-26T03:11:55.572Z,0.86
2023-02-26T03:12:55.645Z,0.83
2023-02-26T03:13:55.704Z,1.00
2023-02-26T03:54:56.253Z,0.50
2023-02-26T03:55:55.117Z,0.50
2023-02-26T03:56:55.227Z,0.50
2023-02-26T03:57:55.017Z,0.50
2023-02-26T03:58:55.039Z,0.50
2023-02-26T03:59:55.047Z,0.50
2023-02-26T04:00:55.025Z,0.34
2023-02-26T04:01:54.973Z,0.34
2023-02-26T04:02:55.044Z,0.34
2023-02-26T04:03:54.987Z,0.34
2023-02-26T04:04:54.959Z,0.34
2023-02-26T04:05:54.951Z,0.34
2023-02-26T04:06:54.988Z,0.34
2023-02-26T04:07:54.989Z,0.34
2023-02-26T04:08:54.946Z,0.34
2023-02-26T04:13:35.807Z,0.50
2023-02-26T04:14:35.727Z,0.50
2023-02-26T04:15:35.670Z,0.50
2023-02-26T04:16:35.696Z,0.50
2023-02-26T04:17:35.634Z,0.50
2023-02-26T04:32:34.216Z,0.50
2023-02-26T04:33:35.035Z,0.50
2023-02-26T04:37:37.208Z,0.50
2023-02-26T05:30:57.923Z,0.50
2023-02-26T05:31:57.664Z,0.50
2023-02-26T05:32:57.649Z,0.50
2023-02-26T05:33:57.641Z,0.50
2023-02-26T05:34:57.555Z,0.50
2023-02-26T05:35:57.557Z,0.50
2023-02-26T05:36:57.581Z,0.34
2023-02-26T05:37:57.541Z,0.34
2023-02-26T05:38:57.485Z,0.34
2023-02-26T05:39:57.511Z,0.34
2023-02-26T05:40:57.506Z,0.34
2023-02-26T05:43:18.635Z,0.50
2023-02-26T05:44:18.411Z,0.50
2023-02-26T05:45:18.135Z,0.50
2023-02-26T05:46:18.289Z,0.50
2023-02-26T05:47:18.172Z,0.50
2023-02-26T05:48:17.761Z,0.50
2023-02-26T05:49:17.762Z,0.53
2023-02-26T05:50:17.739Z,0.57
2023-02-26T05:51:17.705Z,0.51
2023-02-26T05:52:17.816Z,0.52
2023-02-26T05:54:38.989Z,0.50
2023-02-26T05:55:38.469Z,0.50
2023-02-26T05:56:38.079Z,0.50
2023-02-26T05:57:38.254Z,0.50
2023-02-26T05:58:38.136Z,0.50
2023-02-26T05:59:38.195Z,0.48
2023-02-26T06:00:38.777Z,0.50
2023-02-26T06:01:39.035Z,0.65
2023-02-26T06:02:38.093Z,0.94
2023-02-26T06:03:37.981Z,0.66
2023-02-26T06:04:37.994Z,0.62
2023-02-26T06:05:38.032Z,0.71
2023-02-26T06:06:37.946Z,0.58
2023-02-26T06:07:38.436Z,0.52
2023-02-26T06:08:39.215Z,0.52
2023-02-26T06:09:37.934Z,0.58
2023-02-26T06:10:38.018Z,0.61
2023-02-26T06:11:38.060Z,0.63
2023-02-26T06:12:37.906Z,0.62
2023-02-26T06:13:37.855Z,0.64
2023-02-26T06:14:37.955Z,0.71
2023-02-26T06:15:37.860Z,0.76
2023-02-26T06:16:38.030Z,0.75
2023-02-26T06:17:40.502Z,0.70
2023-02-26T06:18:38.139Z,0.61
2023-02-26T06:19:37.939Z,0.70
2023-02-26T06:20:37.838Z,0.98
2023-02-26T06:21:38.392Z,1.02
2023-02-26T06:22:38.045Z,0.84
2023-02-26T06:23:37.864Z,1.11
2023-02-26T06:24:37.872Z,1.16
2023-02-26T06:25:37.928Z,1.20
2023-02-26T06:27:58.789Z,0.50
2023-02-26T06:28:58.021Z,0.50
2023-02-26T06:29:58.680Z,0.50
2023-02-26T06:30:58.561Z,0.50
2023-02-26T06:31:58.064Z,0.50
2023-02-26T06:32:57.909Z,0.52
2023-02-26T06:33:57.873Z,0.55
2023-02-26T06:34:57.949Z,0.50
2023-02-26T06:35:57.960Z,0.58
2023-02-26T06:36:57.895Z,0.60
2023-02-26T06:37:57.891Z,0.49
2023-02-26T06:38:57.852Z,0.46
2023-02-26T06:39:57.861Z,0.61
2023-02-26T06:40:57.925Z,0.50
2023-02-26T06:47:48.127Z,0.50
2023-02-26T06:48:47.624Z,0.50
2023-02-26T06:49:47.309Z,0.50
2023-02-26T06:50:47.425Z,0.50
2023-02-26T06:51:48.080Z,0.50
2023-02-26T06:52:47.212Z,0.50
2023-02-26T06:53:47.230Z,0.45
2023-02-26T06:54:47.227Z,0.39
2023-02-26T06:55:47.203Z,0.43
2023-02-26T06:56:47.190Z,0.44
2023-02-26T06:57:47.186Z,0.47
2023-02-26T06:58:47.315Z,0.60
2023-02-26T06:59:47.428Z,0.87
2023-02-26T07:00:47.188Z,0.69
2023-02-26T07:01:47.217Z,0.84
2023-02-26T07:02:47.199Z,0.85
2023-02-26T07:03:47.136Z,0.82
2023-02-26T07:04:47.136Z,0.83
2023-02-26T07:05:47.122Z,0.73
2023-02-26T07:06:47.143Z,0.64
2023-02-26T07:07:47.118Z,0.58
2023-02-26T07:08:47.187Z,0.63
2023-02-26T07:09:47.128Z,0.62
2023-02-26T07:10:47.352Z,0.66
2023-02-26T07:11:47.102Z,0.67
2023-02-26T07:12:47.084Z,0.65
2023-02-26T07:13:47.178Z,0.54
2023-02-26T07:14:47.111Z,0.50
2023-02-26T07:15:47.100Z,0.39
2023-02-26T07:16:47.104Z,0.34
2023-02-26T07:17:47.058Z,0.37
2023-02-26T07:18:47.138Z,0.40
2023-02-26T07:19:47.078Z,0.54
2023-02-26T07:20:47.094Z,0.50
2023-02-26T07:21:47.015Z,0.58
2023-02-26T07:22:47.016Z,0.50
2023-02-26T07:23:47.016Z,0.48
2023-02-26T07:24:47.490Z,0.51
2023-02-26T07:25:47.032Z,0.55
2023-02-26T07:26:46.981Z,0.49
2023-02-26T07:27:46.979Z,0.45
2023-02-26T07:28:47.063Z,0.49
2023-02-26T07:29:47.102Z,0.60
2023-02-26T07:30:47.234Z,0.77
2023-02-26T07:31:47.332Z,0.70
2023-02-26T07:32:47.197Z,0.59
2023-02-26T07:33:47.251Z,0.51
2023-02-26T07:34:47.304Z,0.51
2023-02-26T07:37:08.955Z,0.50
2023-02-26T07:40:50.429Z,0.50
2023-02-26T07:56:10.264Z,0.50
2023-02-26T07:57:10.133Z,0.50
2023-02-26T07:58:09.721Z,0.50
2023-02-26T07:59:09.744Z,0.50
2023-02-26T08:00:10.050Z,0.50
2023-02-26T08:09:39.667Z,0.50
2023-02-26T08:10:53.460Z,0.50
2023-02-26T08:11:37.682Z,0.50
2023-02-26T08:12:37.377Z,0.50
2023-02-26T08:13:37.319Z,0.50
2023-02-26T08:14:37.319Z,0.50
2023-02-26T08:15:37.374Z,0.50
2023-02-26T08:16:37.312Z,0.50
2023-02-26T08:17:37.292Z,0.53
2023-02-26T08:18:37.314Z,0.50
2023-02-26T08:19:37.320Z,0.46
2023-02-26T08:20:37.315Z,0.62
2023-02-26T08:21:37.280Z,0.55
2023-02-26T08:22:37.274Z,0.50
2023-02-26T08:23:37.289Z,0.51
2023-02-26T08:26:00.306Z,0.50
2023-02-26T08:28:18.262Z,0.50
2023-02-26T08:29:18.105Z,0.50
2023-02-26T08:30:17.821Z,0.50
2023-02-26T08:31:17.900Z,0.50
2023-02-26T08:32:17.997Z,0.50
2023-02-26T08:33:17.794Z,0.42
2023-02-26T08:34:17.852Z,0.56
2023-02-26T08:45:18.129Z,0.50
2023-02-26T08:46:17.787Z,0.50
2023-02-26T08:47:27.971Z,0.50
2023-02-26T08:48:18.137Z,0.50
2023-02-26T08:49:17.119Z,0.50
2023-02-26T08:50:17.101Z,0.50
2023-02-26T08:51:17.066Z,0.50
2023-02-26T08:56:07.887Z,0.50
2023-02-26T09:30:18.602Z,0.50
2023-02-26T09:31:18.663Z,0.50
2023-02-26T09:32:18.081Z,0.50
2023-02-26T11:00:11.704Z,0.50
2023-02-26T11:01:11.741Z,0.50
2023-02-26T11:02:11.753Z,0.50
2023-02-26T11:03:11.690Z,0.50
2023-02-26T11:04:11.667Z,0.50
2023-02-26T11:05:11.695Z,0.50
2023-02-26T11:06:11.638Z,0.54
2023-02-26T11:07:11.614Z,0.44
2023-02-26T11:08:11.619Z,0.42
2023-02-26T11:09:11.706Z,0.71
2023-02-26T11:10:11.637Z,0.75
2023-02-26T11:11:11.662Z,0.62
2023-02-26T11:12:11.616Z,0.58
2023-02-26T11:13:11.582Z,0.53
2023-02-26T11:14:11.598Z,0.68
2023-02-26T11:15:11.602Z,0.50
2023-02-26T11:16:11.610Z,0.54
2023-02-26T11:17:11.587Z,0.62
2023-02-26T11:18:11.609Z,0.36
2023-02-26T11:19:11.624Z,0.35
2023-02-26T11:20:11.628Z,0.38
2023-02-26T11:21:11.697Z,0.56
2023-02-26T11:22:11.740Z,0.53
2023-02-26T11:23:11.834Z,0.54
2023-02-26T11:24:11.777Z,0.78
2023-02-26T11:25:11.835Z,0.90
2023-02-26T11:26:11.882Z,0.64
2023-02-26T11:27:11.907Z,0.59
2023-02-26T11:28:11.925Z,0.55
2023-02-26T11:29:12.004Z,0.50
2023-02-26T11:30:12.026Z,0.54
2023-02-26T11:31:12.187Z,0.72
2023-02-26T11:32:12.183Z,0.63
2023-02-26T11:33:28.308Z,0.56
2023-02-26T11:40:50.072Z,0.50
2023-02-26T11:47:10.568Z,0.50
2023-02-26T11:49:30.240Z,0.50
2023-02-26T11:50:30.129Z,0.50
2023-02-26T11:51:30.759Z,0.50
2023-02-26T11:52:29.948Z,0.50
2023-02-26T11:53:30.172Z,0.50
2023-02-26T11:55:30.118Z,0.59
2023-02-26T11:56:29.983Z,0.53
2023-02-26T11:58:49.748Z,0.50
2023-02-26T11:59:49.687Z,0.50
2023-02-26T12:00:49.454Z,0.50
2023-02-26T12:01:49.419Z,0.50
2023-02-26T12:02:49.538Z,0.50
2023-02-26T12:03:49.500Z,0.54
2023-02-26T12:04:49.418Z,0.52
2023-02-26T12:05:49.466Z,0.57
2023-02-26T12:06:49.454Z,0.86
2023-02-26T12:07:49.399Z,0.85
2023-02-26T12:08:49.374Z,1.10
2023-02-26T12:09:49.388Z,1.06
2023-02-26T12:10:49.378Z,1.42
2023-02-26T12:11:49.372Z,1.47
2023-02-26T12:12:49.374Z,1.03
2023-02-26T12:13:49.339Z,0.85
2023-02-26T12:14:49.369Z,1.06
2023-02-26T12:15:49.485Z,1.60
2023-02-26T12:16:49.406Z,1.27
2023-02-26T12:17:49.413Z,1.21
2023-02-26T12:18:49.466Z,1.08
2023-02-26T12:19:49.491Z,0.78
2023-02-26T12:20:49.939Z,0.75
2023-02-26T12:21:49.815Z,0.67
2023-02-26T12:22:49.659Z,0.48
2023-02-26T12:23:49.568Z,0.63
2023-02-26T12:24:49.665Z,0.72
2023-02-26T12:25:49.677Z,0.53
2023-02-26T12:26:49.688Z,0.55
2023-02-26T12:27:49.738Z,0.54
2023-02-26T12:28:49.760Z,0.48
2023-02-26T12:29:49.816Z,0.50
2023-02-26T12:30:49.895Z,0.72
2023-02-26T12:31:50.022Z,0.97
2023-02-26T12:32:49.989Z,0.97
2023-02-26T12:33:49.958Z,1.13
2023-02-26T12:34:49.994Z,1.09
2023-02-26T12:35:50.024Z,0.62
2023-02-26T12:36:50.081Z,0.44
2023-02-26T12:37:50.126Z,0.41
2023-02-26T12:38:50.159Z,0.59
2023-02-26T12:39:50.197Z,0.70
2023-02-26T12:40:50.191Z,0.63
2023-02-26T12:41:50.206Z,0.59
2023-02-26T12:42:50.254Z,0.40
2023-02-26T12:43:50.325Z,0.45
2023-02-26T12:44:50.487Z,0.70
2023-02-26T12:45:50.387Z,0.67
2023-02-26T12:46:50.445Z,1.01
2023-02-26T12:47:50.449Z,1.57
2023-02-26T12:48:51.447Z,1.89
2023-02-26T12:51:17.251Z,0.50
2023-02-26T12:52:16.843Z,0.50
2023-02-26T12:53:17.026Z,0.50
2023-02-26T12:54:16.708Z,0.50
2023-02-26T12:55:16.817Z,0.50
2023-02-26T12:56:16.715Z,0.50
2023-02-26T12:57:16.725Z,0.46
2023-02-26T12:58:16.727Z,0.37
2023-02-26T12:59:16.804Z,0.39
2023-02-26T13:00:16.705Z,0.63
2023-02-26T13:01:16.713Z,0.76
2023-02-26T13:02:16.717Z,0.72
2023-02-26T13:03:16.682Z,0.98
2023-02-26T13:04:16.717Z,0.74
2023-02-26T13:05:16.680Z,0.69
2023-02-26T13:06:16.685Z,0.57
2023-02-26T13:07:16.692Z,0.56
2023-02-26T13:08:16.653Z,0.65
2023-02-26T13:09:16.663Z,0.57
2023-02-26T13:10:16.712Z,0.56
2023-02-26T13:11:16.736Z,0.42
2023-02-26T13:12:16.833Z,0.61
2023-02-26T13:13:16.865Z,0.70
2023-02-26T13:14:16.957Z,0.74
2023-02-26T13:15:17.004Z,0.97
2023-02-26T13:16:17.041Z,0.94
2023-02-26T13:17:17.013Z,0.74
2023-02-26T13:18:17.157Z,0.66
2023-02-26T13:19:17.138Z,1.00
2023-02-26T13:20:17.099Z,0.68
2023-02-26T13:21:17.149Z,0.34
2023-02-26T13:22:17.175Z,0.35
2023-02-26T13:23:17.228Z,0.35
2023-02-26T13:24:17.235Z,0.34
2023-02-26T13:25:17.285Z,0.34
2023-02-26T13:26:17.247Z,0.34
2023-02-26T13:27:17.327Z,0.34
2023-02-26T13:28:17.353Z,0.34
2023-02-26T13:29:17.414Z,0.43
2023-02-26T13:30:17.446Z,0.49
2023-02-26T13:31:17.466Z,0.46
2023-02-26T13:32:17.667Z,0.44
2023-02-26T13:33:17.537Z,0.74
2023-02-26T13:34:17.524Z,1.11
2023-02-26T13:35:17.576Z,1.09
2023-02-26T13:36:17.617Z,1.15
2023-02-26T13:37:17.612Z,1.08
2023-02-26T13:38:17.621Z,0.97
2023-02-26T13:39:17.690Z,0.72
2023-02-26T13:40:17.723Z,0.96
2023-02-26T13:41:17.783Z,0.88
2023-02-26T13:56:10.535Z,0.50
2023-02-26T13:57:10.703Z,0.50
2023-02-26T13:58:10.447Z,0.50
2023-02-26T13:59:10.436Z,0.50
2023-02-26T14:00:10.466Z,0.50
2023-02-26T14:01:10.442Z,0.46
2023-02-26T14:02:10.397Z,0.34
2023-02-26T14:03:10.454Z,0.34
2023-02-26T14:04:10.434Z,0.34
2023-02-26T14:05:10.397Z,0.34
2023-02-26T14:06:10.350Z,0.34
2023-02-26T14:08:31.346Z,0.50
2023-02-26T17:04:19.211Z,0.50
2023-02-26T17:05:19.895Z,0.50
2023-02-26T17:06:19.170Z,0.50
2023-02-26T17:07:18.949Z,0.50
2023-02-26T17:08:18.905Z,0.50
2023-02-26T17:09:18.881Z,0.50
2023-02-26T17:10:18.862Z,0.50
2023-02-26T17:11:18.876Z,0.34
2023-02-26T17:12:18.901Z,0.34
2023-02-26T17:13:18.860Z,0.34
2023-02-26T17:14:18.836Z,0.34
2023-02-26T17:15:18.896Z,0.34
2023-02-26T17:16:18.844Z,0.34
2023-02-26T17:17:18.845Z,0.34
2023-02-26T17:18:18.838Z,0.34
2023-02-26T17:19:18.843Z,0.34
2023-02-26T17:20:18.909Z,0.34
2023-02-26T17:21:18.958Z,0.34
2023-02-26T17:22:18.992Z,0.34
2023-02-26T17:23:19.056Z,0.34
2023-02-26T17:24:19.062Z,0.34
2023-02-26T17:25:19.051Z,0.34
2023-02-26T17:26:19.154Z,0.34
2023-02-26T17:27:19.187Z,0.34
2023-02-26T17:29:39.412Z,0.50
2023-02-26T17:30:39.361Z,0.50
2023-02-26T17:31:39.048Z,0.50
2023-02-26T17:32:39.138Z,0.50
2023-02-26T17:33:39.009Z,0.50
2023-02-26T17:34:39.014Z,0.52
2023-02-26T17:35:39.048Z,0.34
2023-02-26T17:36:38.985Z,0.34
2023-02-26T17:37:38.954Z,0.34
2023-02-26T17:38:39.008Z,0.34
2023-02-26T17:39:38.970Z,0.34
2023-02-26T17:40:38.975Z,0.34
2023-02-26T17:41:39.003Z,0.34
2023-02-26T17:42:38.956Z,0.34
2023-02-26T17:43:38.931Z,0.34
2023-02-26T17:44:38.953Z,0.34
2023-02-26T17:45:39.012Z,0.34
2023-02-26T17:46:38.913Z,0.34
2023-02-26T17:47:38.889Z,0.34
2023-02-26T17:48:38.895Z,0.34
2023-02-26T17:49:38.938Z,0.34
2023-02-26T17:50:38.937Z,0.34
2023-02-26T17:51:38.900Z,0.35
2023-02-26T17:52:38.903Z,0.49
2023-02-26T17:53:38.898Z,0.63
2023-02-26T17:54:38.905Z,0.86
2023-02-26T17:55:38.879Z,1.04
2023-02-26T17:56:38.890Z,1.08
2023-02-26T17:57:38.860Z,0.91
2023-02-26T17:58:38.845Z,0.89
2023-02-26T17:59:38.842Z,0.92
2023-02-26T18:03:48.284Z,0.50
2023-02-26T18:04:48.328Z,0.50
2023-02-26T18:05:48.350Z,0.50
2023-02-26T18:06:48.567Z,0.50
2023-02-26T18:07:48.190Z,0.50
2023-02-26T18:08:48.189Z,0.52
2023-02-26T18:09:48.085Z,0.66
2023-02-26T18:10:48.085Z,0.69
2023-02-26T18:11:48.195Z,0.48
2023-02-26T18:12:48.109Z,0.53
2023-02-26T18:13:48.053Z,0.62
2023-02-26T18:14:48.179Z,0.74
2023-02-26T18:15:48.175Z,0.82
2023-02-26T18:16:48.171Z,0.39
2023-02-26T18:17:48.060Z,0.34
2023-02-26T18:18:48.054Z,0.38
2023-02-26T18:19:48.056Z,0.54
2023-02-26T18:20:48.168Z,0.58
2023-02-26T18:21:48.173Z,0.63
2023-02-26T18:22:48.204Z,0.60
2023-02-26T18:23:48.193Z,0.74
2023-02-26T18:24:48.217Z,0.66
2023-02-26T18:25:48.230Z,0.59
2023-02-26T18:26:48.309Z,0.66
2023-02-26T18:27:48.290Z,0.50
2023-02-26T18:28:48.340Z,0.50
2023-02-26T18:29:48.409Z,0.64
2023-02-26T18:30:48.562Z,0.98
2023-02-26T18:31:48.606Z,1.26
2023-02-26T18:32:48.567Z,1.77
2023-02-26T18:33:48.544Z,2.99
2023-02-26T18:34:48.518Z,5.22
2023-02-26T18:35:48.573Z,4.92
2023-02-26T18:36:48.564Z,5.18
2023-02-26T18:37:48.650Z,5.58
2023-02-26T18:38:48.643Z,6.55
2023-02-26T18:39:48.721Z,3.40
2023-02-26T18:40:48.706Z,2.64
2023-02-26T18:41:48.764Z,2.14
2023-02-26T18:42:48.758Z,2.32
2023-02-26T18:43:48.793Z,3.48
2023-02-26T18:44:48.774Z,4.37
2023-02-26T18:47:08.880Z,0.50
2023-02-26T18:48:08.833Z,0.50
2023-02-26T18:49:08.905Z,0.50
2023-02-26T18:50:08.844Z,0.50
2023-02-26T18:51:08.855Z,0.50
2023-02-26T18:52:08.870Z,0.56
2023-02-26T18:53:08.810Z,0.60
2023-02-26T18:54:08.805Z,0.91
2023-02-26T18:55:08.852Z,0.93
2023-02-26T18:56:08.841Z,0.34
2023-02-26T19:02:29.268Z,0.50
2023-02-26T19:03:29.228Z,0.50
2023-02-26T19:04:29.448Z,0.50
2023-02-26T19:07:29.189Z,0.70
2023-02-26T19:08:29.101Z,0.87
2023-02-26T19:09:29.142Z,0.67
2023-02-26T19:10:29.157Z,0.49
2023-02-26T19:11:29.139Z,0.51
2023-02-26T19:12:29.102Z,0.52
2023-02-26T19:13:29.130Z,0.49
2023-02-26T19:14:29.097Z,0.50
2023-02-26T19:15:45.601Z,0.56
2023-02-26T19:42:59.984Z,0.50
2023-02-26T19:45:19.653Z,0.50
2023-02-26T19:46:19.487Z,0.50
2023-02-26T19:47:19.624Z,0.50
2023-02-26T19:48:19.373Z,0.50
2023-02-26T19:49:19.440Z,0.50
2023-02-26T19:51:39.545Z,0.50
2023-02-26T19:52:39.548Z,0.50
2023-02-26T19:53:39.300Z,0.50
2023-02-26T19:54:39.272Z,0.50
2023-02-26T19:55:39.241Z,0.50
2023-02-26T19:56:39.275Z,0.65
2023-02-26T19:57:39.264Z,0.63
2023-02-26T19:58:39.304Z,0.39
2023-02-26T20:14:19.596Z,0.50
2023-02-26T20:15:19.499Z,0.50
2023-02-26T20:16:19.441Z,0.50
2023-02-26T20:17:19.290Z,0.50
2023-02-26T20:18:19.279Z,0.50
2023-02-26T20:19:19.269Z,0.58
2023-02-26T20:20:19.203Z,1.00
2023-02-26T20:21:19.220Z,1.27
2023-02-26T20:22:19.182Z,0.87
2023-02-26T20:23:19.173Z,0.67
2023-02-26T20:24:19.209Z,0.77
2023-02-26T20:25:19.161Z,0.89
2023-02-26T20:26:19.178Z,1.02
2023-02-26T20:27:19.934Z,1.09
2023-02-26T20:30:39.072Z,0.50
2023-02-26T20:31:39.378Z,0.50
2023-02-26T20:42:23.438Z,0.50
2023-02-26T20:43:23.207Z,0.50
2023-02-26T20:44:23.374Z,0.50
2023-02-26T20:45:23.145Z,0.50
2023-02-26T20:46:23.148Z,0.50
2023-02-26T20:47:23.137Z,0.50
2023-02-26T20:48:23.160Z,0.46
2023-02-26T20:49:23.139Z,0.34
2023-02-26T20:50:23.161Z,0.37
2023-02-26T20:51:23.110Z,0.50
2023-02-26T20:52:23.056Z,0.50
2023-02-26T20:53:23.062Z,0.52
2023-02-26T20:54:23.079Z,0.48
2023-02-26T20:55:23.086Z,0.54
2023-02-26T20:56:23.086Z,0.34
2023-02-26T20:57:23.058Z,0.34
2023-02-26T20:58:23.026Z,0.34
2023-02-26T20:59:23.161Z,0.34
2023-02-26T21:00:23.074Z,0.44
2023-02-26T21:02:43.634Z,0.50
2023-02-26T21:03:43.401Z,0.50
2023-02-26T21:04:43.602Z,0.50
2023-02-26T21:05:43.319Z,0.50
2023-02-26T21:06:43.344Z,0.50
2023-02-26T21:07:43.281Z,0.62
2023-02-26T21:08:43.302Z,0.66
2023-02-26T21:09:43.278Z,0.53
2023-02-26T21:10:43.297Z,0.34
2023-02-26T21:11:43.298Z,0.34
2023-02-26T21:12:43.269Z,0.35
2023-02-26T21:13:43.228Z,0.47
2023-02-26T21:21:23.315Z,0.50
2023-02-26T21:22:23.471Z,0.50
2023-02-26T21:23:23.263Z,0.50
2023-02-26T21:24:23.225Z,0.50
2023-02-26T21:25:23.202Z,0.50
2023-02-26T21:26:23.206Z,0.50
2023-02-26T21:27:23.198Z,0.50
2023-02-26T21:28:23.222Z,0.51
2023-02-26T21:29:23.193Z,0.59
2023-02-26T21:30:23.151Z,0.62
2023-02-26T21:31:23.236Z,0.54
2023-02-26T21:32:23.171Z,0.55
2023-02-26T21:33:23.160Z,0.73
2023-02-26T22:23:17.595Z,0.77
2023-02-26T22:39:01.142Z,0.47
2023-02-26T22:40:01.076Z,0.58
2023-02-26T22:41:01.083Z,0.79
2023-02-26T22:42:01.042Z,0.90
2023-02-26T22:43:01.110Z,0.77
2023-02-26T22:44:01.144Z,0.73
2023-02-26T22:45:01.055Z,0.82
2023-02-26T22:46:01.212Z,1.21
2023-02-26T22:47:01.082Z,1.81
2023-02-26T22:48:01.097Z,2.04
2023-02-26T22:49:01.373Z,1.85
2023-02-26T22:50:01.317Z,1.01
2023-02-26T22:51:01.307Z,0.75
2023-02-26T22:52:01.357Z,0.69
2023-02-26T22:53:01.436Z,0.79
2023-02-26T22:54:01.581Z,0.88
2023-02-26T22:55:01.534Z,0.98
2023-02-26T22:56:01.523Z,0.81
2023-02-26T22:57:01.622Z,0.72
2023-02-26T22:58:01.665Z,0.81
2023-02-26T22:59:01.630Z,0.65
2023-02-26T23:00:01.653Z,0.75
2023-02-26T23:06:17.142Z,0.50
